Time;durP1;ratioP1;P1;durP2;ratioP2;P2;SDS_P1;SDS_P2;PMS_P1;PMS_P2;Temp;Humidity;BMP_temperature;BMP_pressure;BME280_temperature;BME280_humidity;BME280_pressure;Samples;Min_cycle;Max_cycle;Signal;HPM_P1;HPM_P2
2024/01/18 00:00:47;;;;;;;13.80;4.70;;;;;;;9.83;97.37;100009.20;108098;1278;21989;-59
2024/01/18 00:03:13;;;;;;;12.50;4.10;;;;;;;9.86;97.41;100005.65;108174;1286;21986;-61
2024/01/18 00:05:40;;;;;;;8.30;4.30;;;;;;;9.89;98.02;100002.80;108181;1277;21991;-63
2024/01/18 00:08:06;;;;;;;12.10;4.80;;;;;;;9.96;97.86;99998.65;108138;1281;21978;-62
2024/01/18 00:10:31;;;;;;;11.20;5.30;;;;;;;9.99;98.43;99993.70;108127;1286;22929;-61
2024/01/18 00:12:57;;;;;;;8.40;4.50;;;;;;;10.01;98.64;99994.19;108124;1286;21988;-60
2024/01/18 00:15:23;;;;;;;16.60;5.00;;;;;;;10.06;99.19;99989.04;108092;1284;21996;-61
2024/01/18 00:17:48;;;;;;;11.20;4.80;;;;;;;10.09;99.68;99989.34;108083;1286;22031;-61
2024/01/18 00:20:14;;;;;;;12.60;5.00;;;;;;;10.12;99.91;99989.64;108149;1274;21989;-60
2024/01/18 00:22:40;;;;;;;9.30;4.70;;;;;;;10.18;99.67;99984.46;108119;1277;21989;-60
2024/01/18 00:25:07;;;;;;;8.00;4.40;;;;;;;10.23;99.11;99980.69;108143;1286;21989;-61
2024/01/18 00:27:32;;;;;;;11.20;4.90;;;;;;;10.23;99.33;99977.34;108131;1282;22159;-60
2024/01/18 00:29:58;;;;;;;13.20;6.20;;;;;;;10.26;99.09;99975.89;108119;1286;21981;-62
2024/01/18 00:32:23;;;;;;;12.60;5.00;;;;;;;10.27;99.43;99967.98;108134;1286;21989;-61
2024/01/18 00:34:49;;;;;;;8.70;5.00;;;;;;;10.30;99.51;99963.20;108107;1277;21997;-61
2024/01/18 00:37:15;;;;;;;12.20;5.80;;;;;;;10.32;99.41;99961.60;108109;1286;21997;-61
2024/01/18 00:39:41;;;;;;;10.70;4.80;;;;;;;10.32;99.39;99963.34;108133;1286;22008;-61
2024/01/18 00:42:07;;;;;;;13.90;5.70;;;;;;;10.32;99.77;99963.52;108112;1281;21989;-61
2024/01/18 00:44:32;;;;;;;13.00;5.00;;;;;;;10.35;99.77;99960.31;108157;1277;21988;-60
2024/01/18 00:46:58;;;;;;;13.50;5.70;;;;;;;10.33;99.91;99951.23;108116;1286;21982;-63
2024/01/18 00:49:24;;;;;;;12.30;5.30;;;;;;;10.37;100.00;99947.13;108193;1281;21995;-61
2024/01/18 00:51:49;;;;;;;14.40;5.40;;;;;;;10.40;99.82;99953.23;108133;1286;21990;-61
2024/01/18 00:54:15;;;;;;;16.10;5.60;;;;;;;10.39;100.00;99948.15;108145;1273;22008;-60
2024/01/18 00:56:40;;;;;;;14.60;5.30;;;;;;;10.46;99.99;99940.66;108139;1277;21992;-60
2024/01/18 00:59:06;;;;;;;12.20;5.40;;;;;;;10.48;99.92;99929.58;108225;1286;21984;-62
2024/01/18 01:01:32;;;;;;;12.10;5.50;;;;;;;10.51;99.50;99923.39;108217;1286;21980;-62
2024/01/18 01:03:58;;;;;;;13.00;5.70;;;;;;;10.47;99.86;99921.00;108130;1277;22012;-60
2024/01/18 01:06:23;;;;;;;11.20;6.10;;;;;;;10.50;100.00;99915.34;108179;1283;22026;-62
2024/01/18 01:08:49;;;;;;;11.00;5.50;;;;;;;10.53;99.90;99912.13;108233;1286;21993;-60
2024/01/18 01:11:14;;;;;;;11.10;6.00;;;;;;;10.51;100.00;99906.20;108152;1286;21986;-61
2024/01/18 01:13:40;;;;;;;19.20;8.30;;;;;;;10.53;99.93;99900.72;108127;1286;21999;-61
2024/01/18 01:16:06;;;;;;;13.70;7.10;;;;;;;10.52;99.94;99899.34;108230;1280;22163;-61
2024/01/18 01:18:32;;;;;;;13.80;8.20;;;;;;;10.53;99.82;99888.09;108181;1273;22027;-60
2024/01/18 01:20:57;;;;;;;17.10;8.20;;;;;;;10.52;99.89;99888.80;108125;1281;22000;-60
2024/01/18 01:23:23;;;;;;;15.20;7.80;;;;;;;10.53;100.00;99883.88;108105;1286;22002;-62
2024/01/18 01:25:48;;;;;;;16.60;8.40;;;;;;;10.56;99.78;99877.52;108093;1286;22007;-59
2024/01/18 01:28:14;;;;;;;17.90;9.20;;;;;;;10.56;99.87;99873.30;108133;1280;21989;-59
2024/01/18 01:30:40;;;;;;;16.30;8.10;;;;;;;10.54;100.00;99871.41;108210;1278;21998;-61
2024/01/18 01:33:05;;;;;;;19.60;8.90;;;;;;;10.51;100.00;99863.20;108331;1286;22456;-60
2024/01/18 01:35:31;;;;;;;19.80;11.10;;;;;;;10.51;100.00;99855.50;108284;1286;21998;-59
2024/01/18 01:37:56;;;;;;;20.60;10.20;;;;;;;10.50;100.00;99858.34;108335;1286;21994;-60
2024/01/18 01:40:22;;;;;;;21.40;10.20;;;;;;;10.51;100.00;99857.27;108317;1286;21989;-62
2024/01/18 01:42:47;;;;;;;17.90;10.70;;;;;;;10.53;100.00;99851.27;108211;1284;21996;-59
2024/01/18 01:45:13;;;;;;;21.80;11.10;;;;;;;10.51;100.00;99843.05;107450;1277;1002522;-62
2024/01/18 01:47:39;;;;;;;26.30;11.90;;;;;;;10.55;100.00;99835.79;108164;1286;21985;-60
2024/01/18 01:50:05;;;;;;;18.70;11.20;;;;;;;10.56;100.00;99828.21;108193;1281;21993;-62
2024/01/18 01:52:31;;;;;;;18.40;11.50;;;;;;;10.55;100.00;99823.31;108215;1273;21989;-60
2024/01/18 01:54:56;;;;;;;22.00;11.80;;;;;;;10.56;100.00;99817.51;108239;1277;21987;-61
2024/01/18 01:57:25;;;;;;;29.20;11.70;;;;;;;10.55;100.00;99806.48;108334;1280;21986;-60
2024/01/18 01:59:51;;;;;;;24.70;12.50;;;;;;;10.53;100.00;99799.85;108158;1286;21987;-61
2024/01/18 02:02:17;;;;;;;26.50;13.50;;;;;;;10.53;100.00;99791.45;108190;1277;21990;-59
2024/01/18 02:04:43;;;;;;;23.00;13.80;;;;;;;10.57;100.00;99783.12;108135;1283;21997;-60
2024/01/18 02:07:08;;;;;;;22.90;13.20;;;;;;;10.57;100.00;99777.84;108139;1286;21986;-59
2024/01/18 02:09:34;;;;;;;22.70;12.80;;;;;;;10.58;100.00;99777.65;108190;1286;21987;-61
2024/01/18 02:11:59;;;;;;;23.90;14.20;;;;;;;10.61;100.00;99774.43;108119;1286;21999;-59
2024/01/18 02:14:25;;;;;;;26.30;12.60;;;;;;;10.62;100.00;99774.39;107912;1286;22004;-59
2024/01/18 02:16:51;;;;;;;24.40;14.00;;;;;;;10.65;100.00;99771.70;107893;1286;21983;-62
2024/01/18 02:19:16;;;;;;;27.20;14.80;;;;;;;10.63;100.00;99769.10;108145;1284;22001;-60
2024/01/18 02:21:42;;;;;;;26.40;14.30;;;;;;;10.61;100.00;99764.59;108225;1284;21995;-62
2024/01/18 02:24:16;;;;;;;27.40;14.40;;;;;;;10.62;100.00;99760.00;108172;1286;21990;-60
2024/01/18 02:26:42;;;;;;;25.90;15.70;;;;;;;10.64;100.00;99755.94;108199;1283;21992;-62
2024/01/18 02:29:07;;;;;;;23.60;14.70;;;;;;;10.64;100.00;99753.47;108264;1286;21996;-59
2024/01/18 02:31:33;;;;;;;24.70;13.80;;;;;;;10.65;100.00;99747.66;108284;1286;23072;-62
2024/01/18 02:33:59;;;;;;;27.30;14.00;;;;;;;10.67;100.00;99745.86;108329;1286;21996;-59
2024/01/18 02:36:24;;;;;;;27.50;15.40;;;;;;;10.64;100.00;99744.16;107987;1286;21991;-61
2024/01/18 02:38:50;;;;;;;26.20;15.10;;;;;;;10.63;100.00;99743.14;108268;1273;22004;-59
2024/01/18 02:41:15;;;;;;;25.80;16.00;;;;;;;10.60;100.00;99738.64;107927;1283;21999;-62
2024/01/18 02:43:41;;;;;;;27.70;17.80;;;;;;;10.59;100.00;99739.05;108161;1277;21991;-63
2024/01/18 02:46:07;;;;;;;24.60;15.30;;;;;;;10.61;100.00;99739.33;108290;1286;21996;-59
2024/01/18 02:48:32;;;;;;;22.90;14.20;;;;;;;10.65;100.00;99738.88;107559;1286;1002544;-62
2024/01/18 02:50:58;;;;;;;27.60;14.20;;;;;;;10.63;100.00;99735.75;108181;1286;22028;-61
2024/01/18 02:53:23;;;;;;;25.10;14.70;;;;;;;10.66;100.00;99737.98;108278;1280;21992;-60
2024/01/18 02:55:49;;;;;;;27.50;14.70;;;;;;;10.66;100.00;99737.27;108267;1286;22001;-62
2024/01/18 02:58:15;;;;;;;26.30;14.60;;;;;;;10.68;100.00;99734.42;108176;1286;21973;-62
2024/01/18 03:00:41;;;;;;;25.50;14.30;;;;;;;10.73;100.00;99732.73;108299;1282;21989;-59
2024/01/18 03:03:06;;;;;;;24.10;14.20;;;;;;;10.75;100.00;99725.33;108272;1286;21984;-63
2024/01/18 03:05:33;;;;;;;22.90;15.30;;;;;;;10.74;100.00;99724.31;108209;1286;22021;-62
2024/01/18 03:07:59;;;;;;;27.30;14.50;;;;;;;10.72;100.00;99719.61;108267;1281;21987;-59
2024/01/18 03:10:24;;;;;;;23.60;15.10;;;;;;;10.70;100.00;99710.34;108142;1286;21994;-61
2024/01/18 03:12:50;;;;;;;27.90;15.40;;;;;;;10.72;100.00;99702.06;108165;1283;22006;-58
2024/01/18 03:15:15;;;;;;;25.10;15.00;;;;;;;10.71;100.00;99695.76;108244;1286;22004;-62
2024/01/18 03:17:41;;;;;;;28.50;15.50;;;;;;;10.69;100.00;99687.90;108191;1278;21989;-62
2024/01/18 03:20:08;;;;;;;29.10;15.30;;;;;;;10.65;100.00;99683.25;108132;1286;21993;-61
2024/01/18 03:22:34;;;;;;;25.60;15.70;;;;;;;10.70;100.00;99684.19;108196;1286;21992;-59
2024/01/18 03:25:01;;;;;;;27.40;16.10;;;;;;;10.70;100.00;99686.65;108193;1281;21995;-59
2024/01/18 03:27:26;;;;;;;29.90;17.00;;;;;;;10.70;100.00;99693.14;108328;1286;21998;-59
2024/01/18 03:29:52;;;;;;;27.00;16.10;;;;;;;10.70;100.00;99694.38;108214;1280;21992;-61
2024/01/18 03:32:17;;;;;;;29.20;16.70;;;;;;;10.77;100.00;99690.89;108268;1274;22001;-61
2024/01/18 03:34:43;;;;;;;27.00;14.80;;;;;;;10.77;100.00;99687.36;108295;1278;22086;-59
2024/01/18 03:37:09;;;;;;;26.00;16.00;;;;;;;10.83;100.00;99680.20;108212;1287;22001;-61
2024/01/18 03:39:36;;;;;;;34.40;17.10;;;;;;;10.82;100.00;99677.78;108133;1284;22001;-59
2024/01/18 03:42:02;;;;;;;31.00;16.60;;;;;;;10.82;100.00;99673.91;108129;1287;21991;-62
2024/01/18 03:44:27;;;;;;;29.20;17.00;;;;;;;10.80;100.00;99663.96;108105;1287;22009;-61
2024/01/18 03:46:53;;;;;;;30.00;17.20;;;;;;;10.83;100.00;99659.30;108094;1287;22047;-58
2024/01/18 03:49:20;;;;;;;30.50;17.00;;;;;;;10.91;100.00;99658.23;108084;1283;22037;-59
2024/01/18 03:51:46;;;;;;;29.00;18.30;;;;;;;10.93;100.00;99653.81;108185;1275;22001;-62
2024/01/18 03:54:11;;;;;;;29.00;17.60;;;;;;;10.93;100.00;99647.48;108184;1287;21998;-62
2024/01/18 03:56:38;;;;;;;28.10;17.70;;;;;;;10.99;100.00;99642.08;108223;1287;22003;-60
2024/01/18 03:59:04;;;;;;;27.20;18.40;;;;;;;11.00;100.00;99635.21;108175;1287;21995;-61
2024/01/18 04:01:33;;;;;;;28.90;17.80;;;;;;;11.03;100.00;99629.15;108211;1276;21994;-61
2024/01/18 04:03:59;;;;;;;30.40;18.00;;;;;;;11.11;100.00;99628.59;108101;1283;21989;-59
2024/01/18 04:06:25;;;;;;;32.10;18.20;;;;;;;11.12;100.00;99623.30;108139;1276;21986;-62
2024/01/18 04:08:50;;;;;;;33.60;19.90;;;;;;;11.12;100.00;99621.89;108211;1283;21989;-61
2024/01/18 04:11:16;;;;;;;28.80;17.80;;;;;;;11.16;100.00;99617.38;108108;1287;21958;-63
2024/01/18 04:13:42;;;;;;;30.10;17.60;;;;;;;11.16;100.00;99615.11;108107;1287;21986;-58
2024/01/18 04:16:08;;;;;;;31.70;18.30;;;;;;;11.17;100.00;99620.02;108129;1278;21987;-60
2024/01/18 04:18:34;;;;;;;30.30;18.70;;;;;;;11.13;100.00;99619.08;108245;1287;21994;-59
2024/01/18 04:20:59;;;;;;;32.40;18.70;;;;;;;11.14;100.00;99613.75;108278;1287;21994;-59
2024/01/18 04:23:25;;;;;;;31.30;18.60;;;;;;;11.12;100.00;99612.58;108078;1277;21986;-59
2024/01/18 04:25:51;;;;;;;31.30;17.60;;;;;;;11.07;100.00;99613.07;108259;1287;22005;-60
2024/01/18 04:28:20;;;;;;;34.00;18.50;;;;;;;11.00;100.00;99611.50;108262;1274;21979;-61
2024/01/18 04:30:46;;;;;;;32.90;17.90;;;;;;;10.94;100.00;99611.33;108283;1287;21999;-61
2024/01/18 04:33:12;;;;;;;33.30;17.90;;;;;;;10.93;100.00;99610.29;108240;1287;22034;-59
2024/01/18 04:35:38;;;;;;;30.20;18.30;;;;;;;10.95;100.00;99615.32;108127;1277;22022;-62
2024/01/18 04:38:03;;;;;;;31.10;16.80;;;;;;;10.93;100.00;99617.65;108125;1280;21994;-59
2024/01/18 04:40:29;;;;;;;30.20;17.70;;;;;;;10.98;100.00;99615.41;108149;1287;22001;-61
2024/01/18 04:42:55;;;;;;;35.40;18.20;;;;;;;11.03;100.00;99619.85;108132;1280;22000;-59
2024/01/18 04:45:20;;;;;;;37.90;18.70;;;;;;;11.10;100.00;99625.64;108224;1277;22006;-59
2024/01/18 04:47:46;;;;;;;34.00;18.70;;;;;;;11.13;100.00;99623.28;108091;1287;24141;-59
2024/01/18 04:50:12;;;;;;;32.40;18.90;;;;;;;11.17;100.00;99618.25;108126;1280;21994;-59
2024/01/18 04:52:37;;;;;;;31.30;18.30;;;;;;;11.18;100.00;99619.11;108106;1275;21986;-59
2024/01/18 04:55:04;;;;;;;27.40;16.60;;;;;;;11.23;100.00;99622.85;108159;1286;22051;-63
2024/01/18 04:57:32;;;;;;;35.60;17.90;;;;;;;11.22;100.00;99619.52;108255;1281;21990;-62
2024/01/18 04:59:58;;;;;;;32.40;17.90;;;;;;;11.26;100.00;99613.09;108206;1287;21988;-60
2024/01/18 05:02:23;;;;;;;31.20;18.50;;;;;;;11.24;100.00;99605.79;108103;1281;21986;-61
2024/01/18 05:04:49;;;;;;;31.90;18.40;;;;;;;11.24;100.00;99601.73;108177;1284;22035;-62
2024/01/18 05:07:15;;;;;;;30.30;17.60;;;;;;;11.23;100.00;99602.65;108228;1287;22117;-63
2024/01/18 05:09:40;;;;;;;26.40;17.10;;;;;;;11.21;100.00;99604.80;108194;1287;21992;-60
2024/01/18 05:12:07;;;;;;;29.90;16.80;;;;;;;11.23;100.00;99605.27;108090;1287;21992;-59
2024/01/18 05:14:33;;;;;;;32.20;17.00;;;;;;;11.28;100.00;99602.48;108115;1281;21990;-59
2024/01/18 05:17:05;;;;;;;34.20;17.70;;;;;;;11.30;100.00;99599.63;108100;1287;22522;-62
2024/01/18 05:19:31;;;;;;;28.80;16.40;;;;;;;11.28;100.00;99596.69;108093;1286;22000;-63
2024/01/18 05:21:56;;;;;;;29.60;16.70;;;;;;;11.29;100.00;99589.85;108103;1281;23072;-62
2024/01/18 05:24:24;;;;;;;33.20;17.70;;;;;;;11.27;100.00;99588.48;108292;1283;21995;-63
2024/01/18 05:26:50;;;;;;;30.70;16.30;;;;;;;11.25;100.00;99587.30;108190;1287;21992;-59
2024/01/18 05:29:15;;;;;;;27.80;16.60;;;;;;;11.28;100.00;99579.67;108143;1281;22155;-62
2024/01/18 05:31:41;;;;;;;26.40;16.10;;;;;;;11.32;100.00;99576.59;108114;1287;21990;-59
2024/01/18 05:34:07;;;;;;;31.50;17.70;;;;;;;11.27;100.00;99576.52;108138;1277;21992;-60
2024/01/18 05:36:32;;;;;;;29.20;15.50;;;;;;;11.21;100.00;99568.79;106645;1277;1002405;-63
2024/01/18 05:38:58;;;;;;;27.50;16.00;;;;;;;11.22;100.00;99567.88;108193;1283;22249;-62
2024/01/18 05:41:24;;;;;;;31.10;16.30;;;;;;;11.31;100.00;99562.38;108242;1287;22068;-60
2024/01/18 05:43:49;;;;;;;30.90;16.20;;;;;;;11.35;100.00;99559.11;108101;1287;21990;-61
2024/01/18 05:46:15;;;;;;;30.00;15.90;;;;;;;11.31;100.00;99559.56;108101;1287;21992;-58
2024/01/18 05:48:41;;;;;;;28.90;15.50;;;;;;;11.33;100.00;99556.17;108134;1277;21990;-58
2024/01/18 05:51:07;;;;;;;31.30;16.00;;;;;;;11.41;100.00;99556.81;108088;1287;21987;-58
2024/01/18 05:53:32;;;;;;;30.20;15.00;;;;;;;11.51;100.00;99555.48;107910;1287;22752;-60
2024/01/18 05:55:59;;;;;;;26.50;14.70;;;;;;;11.51;100.00;99553.72;108165;1287;21998;-61
2024/01/18 05:58:26;;;;;;;30.00;15.00;;;;;;;11.48;100.00;99553.98;108089;1287;21994;-61
2024/01/18 06:00:52;;;;;;;31.80;15.70;;;;;;;11.49;100.00;99549.56;108159;1281;21998;-58
2024/01/18 06:03:18;;;;;;;26.60;15.60;;;;;;;11.49;100.00;99544.29;108156;1287;22029;-58
2024/01/18 06:05:45;;;;;;;26.60;14.80;;;;;;;11.41;100.00;99540.83;108047;1287;23746;-61
2024/01/18 06:08:10;;;;;;;32.10;17.90;;;;;;;11.40;100.00;99531.39;108122;1287;21981;-60
2024/01/18 06:10:36;;;;;;;28.00;15.60;;;;;;;11.44;100.00;99531.80;108100;1287;21992;-58
2024/01/18 06:13:02;;;;;;;24.80;15.70;;;;;;;11.43;100.00;99520.05;108081;1281;21988;-58
2024/01/18 06:15:27;;;;;;;29.80;17.00;;;;;;;11.47;100.00;99515.20;108129;1286;21999;-58
2024/01/18 06:17:53;;;;;;;28.00;17.00;;;;;;;11.54;100.00;99519.20;108115;1287;21998;-61
2024/01/18 06:20:19;;;;;;;33.30;16.90;;;;;;;11.54;100.00;99516.20;108117;1287;22006;-60
2024/01/18 06:22:45;;;;;;;31.00;17.30;;;;;;;11.56;100.00;99517.89;108095;1277;22034;-62
2024/01/18 06:25:10;;;;;;;30.60;17.00;;;;;;;11.57;100.00;99520.69;108100;1287;22029;-62
2024/01/18 06:27:36;;;;;;;27.90;15.80;;;;;;;11.60;100.00;99525.50;108128;1287;22457;-62
2024/01/18 06:30:02;;;;;;;35.30;18.70;;;;;;;11.63;100.00;99522.27;108167;1286;21999;-57
2024/01/18 06:32:28;;;;;;;27.70;17.70;;;;;;;11.66;100.00;99516.02;108078;1286;23590;-61
2024/01/18 06:34:54;;;;;;;25.20;16.50;;;;;;;11.69;100.00;99510.14;108044;1280;22029;-58
2024/01/18 06:37:20;;;;;;;28.10;16.20;;;;;;;11.71;100.00;99503.40;108076;1284;22448;-58
2024/01/18 06:39:46;;;;;;;27.30;15.60;;;;;;;11.76;100.00;99499.03;108141;1277;21997;-61
2024/01/18 06:42:12;;;;;;;27.30;16.50;;;;;;;11.70;100.00;99492.55;108103;1280;22459;-61
2024/01/18 06:44:38;;;;;;;33.10;16.70;;;;;;;11.76;100.00;99490.23;108078;1284;21996;-62
2024/01/18 06:47:04;;;;;;;30.10;17.60;;;;;;;11.78;100.00;99490.70;108109;1286;22029;-60
2024/01/18 06:49:30;;;;;;;34.70;17.30;;;;;;;11.70;100.00;99493.58;108135;1277;21994;-58
2024/01/18 06:51:55;;;;;;;29.70;17.10;;;;;;;11.73;100.00;99489.61;108046;1286;21997;-61
2024/01/18 06:54:22;;;;;;;29.10;17.10;;;;;;;11.79;100.00;99485.73;108294;1283;22006;-58
2024/01/18 06:56:47;;;;;;;26.60;15.90;;;;;;;11.77;100.00;99487.39;108087;1286;22027;-61
2024/01/18 06:59:16;;;;;;;30.30;16.50;;;;;;;11.78;100.00;99487.02;108079;1279;21992;-60
2024/01/18 07:01:42;;;;;;;29.20;16.50;;;;;;;11.66;100.00;99493.20;108046;1286;22208;-57
2024/01/18 07:04:07;;;;;;;33.40;18.30;;;;;;;11.59;100.00;99490.78;108129;1286;21984;-57
2024/01/18 07:06:33;;;;;;;32.60;19.30;;;;;;;11.72;100.00;99491.24;108072;1286;22048;-57
2024/01/18 07:08:59;;;;;;;32.40;18.40;;;;;;;11.70;100.00;99486.21;108059;1286;21983;-61
2024/01/18 07:11:24;;;;;;;35.20;17.80;;;;;;;11.61;100.00;99482.61;108044;1280;21989;-57
2024/01/18 07:13:50;;;;;;;33.00;18.30;;;;;;;11.65;100.00;99476.70;108090;1286;22002;-59
2024/01/18 07:16:15;;;;;;;33.90;17.90;;;;;;;11.70;100.00;99470.03;108103;1280;22017;-60
2024/01/18 07:18:41;;;;;;;29.20;16.70;;;;;;;11.74;100.00;99462.54;108107;1286;21985;-57
2024/01/18 07:21:07;;;;;;;34.50;20.10;;;;;;;11.70;100.00;99455.80;108092;1284;21972;-57
2024/01/18 07:23:32;;;;;;;34.60;18.50;;;;;;;11.78;100.00;99447.48;106568;1277;1002592;-61
2024/01/18 07:25:58;;;;;;;32.60;19.40;;;;;;;11.82;100.00;99451.05;108076;1286;21992;-58
2024/01/18 07:28:23;;;;;;;32.90;19.10;;;;;;;11.87;100.00;99443.48;108076;1280;21989;-58
2024/01/18 07:30:49;;;;;;;39.10;18.60;;;;;;;11.84;100.00;99436.73;108074;1280;22049;-61
2024/01/18 07:33:14;;;;;;;30.50;19.50;;;;;;;11.85;100.00;99435.81;108037;1276;21989;-61
2024/01/18 07:35:40;;;;;;;36.90;19.80;;;;;;;11.91;100.00;99434.05;108063;1286;21994;-61
2024/01/18 07:38:06;;;;;;;33.90;20.00;;;;;;;11.86;100.00;99432.66;108059;1277;22453;-59
2024/01/18 07:40:32;;;;;;;38.70;20.40;;;;;;;11.83;100.00;99428.16;108149;1286;21982;-61
2024/01/18 07:42:57;;;;;;;35.10;19.70;;;;;;;11.84;100.00;99428.81;108063;1286;22000;-61
2024/01/18 07:45:23;;;;;;;36.80;19.30;;;;;;;11.81;100.00;99426.45;107926;1286;177526;-59
2024/01/18 07:47:49;;;;;;;35.50;20.20;;;;;;;11.85;100.00;99424.58;108053;1277;22046;-58
2024/01/18 07:50:15;;;;;;;36.20;19.60;;;;;;;11.86;100.00;99421.02;108228;1283;22206;-60
2024/01/18 07:52:41;;;;;;;33.10;18.50;;;;;;;11.90;100.00;99421.09;108379;1283;22468;-60
2024/01/18 07:55:07;;;;;;;33.00;21.40;;;;;;;11.79;100.00;99423.73;108279;1286;21986;-60
2024/01/18 07:57:33;;;;;;;36.80;19.50;;;;;;;11.84;100.00;99430.23;108131;1286;21999;-58
2024/01/18 08:00:00;;;;;;;34.30;20.10;;;;;;;11.78;100.00;99438.88;108151;1286;22028;-58
2024/01/18 08:02:26;;;;;;;38.80;22.80;;;;;;;11.56;100.00;99443.94;108087;1278;23215;-60
2024/01/18 08:04:54;;;;;;;34.50;20.70;;;;;;;11.70;100.00;99436.64;108099;1286;21953;-60
2024/01/18 08:07:20;;;;;;;33.80;21.40;;;;;;;11.80;100.00;99438.98;108129;1286;22158;-58
2024/01/18 08:09:45;;;;;;;34.50;21.60;;;;;;;11.90;100.00;99433.92;108111;1286;21999;-61
2024/01/18 08:12:11;;;;;;;34.90;22.50;;;;;;;11.83;100.00;99438.00;108063;1280;21986;-60
2024/01/18 08:14:41;;;;;;;33.70;20.90;;;;;;;11.93;100.00;99434.52;108229;1284;21990;-61
2024/01/18 08:17:07;;;;;;;32.50;20.90;;;;;;;11.94;100.00;99431.84;108248;1283;22963;-61
2024/01/18 08:19:33;;;;;;;34.40;21.10;;;;;;;11.99;100.00;99425.70;108386;1286;22988;-62
2024/01/18 08:21:59;;;;;;;35.00;21.00;;;;;;;11.95;100.00;99424.42;108187;1286;21991;-62
2024/01/18 08:24:25;;;;;;;32.10;19.60;;;;;;;11.99;100.00;99417.27;108234;1286;21987;-62
2024/01/18 08:26:51;;;;;;;36.10;21.30;;;;;;;12.05;100.00;99411.45;108275;1286;22006;-62
2024/01/18 08:29:17;;;;;;;35.30;21.00;;;;;;;12.03;100.00;99399.91;108200;1286;21993;-61
2024/01/18 08:31:42;;;;;;;38.40;22.10;;;;;;;12.04;100.00;99396.73;108108;1286;21995;-58
2024/01/18 08:34:08;;;;;;;36.00;21.60;;;;;;;12.05;100.00;99391.41;108060;1276;22000;-58
2024/01/18 08:36:36;;;;;;;38.40;22.70;;;;;;;12.07;100.00;99384.69;108079;1281;21995;-62
2024/01/18 08:39:03;;;;;;;34.00;22.40;;;;;;;12.06;100.00;99386.29;108124;1286;21999;-61
2024/01/18 08:41:29;;;;;;;33.90;21.30;;;;;;;12.08;100.00;99388.33;108151;1273;21990;-61
2024/01/18 08:43:55;;;;;;;37.30;22.60;;;;;;;12.06;100.00;99382.94;108262;1277;21993;-58
2024/01/18 08:46:20;;;;;;;39.50;23.00;;;;;;;12.05;100.00;99386.52;108106;1286;22621;-61
2024/01/18 08:48:46;;;;;;;39.70;22.80;;;;;;;12.11;100.00;99374.51;108203;1286;21990;-60
2024/01/18 08:51:14;;;;;;;35.70;21.80;;;;;;;12.04;100.00;99372.98;108105;1286;21999;-60
2024/01/18 08:53:43;;;;;;;33.80;21.80;;;;;;;12.09;100.00;99371.08;108129;1286;21999;-60
2024/01/18 08:56:08;;;;;;;39.30;22.80;;;;;;;12.04;100.00;99374.90;108137;1286;22017;-61
2024/01/18 08:58:35;;;;;;;37.80;23.90;;;;;;;12.04;100.00;99378.80;108032;1286;22004;-60
2024/01/18 09:01:01;;;;;;;37.60;23.90;;;;;;;12.09;100.00;99366.85;108135;1286;22108;-58
2024/01/18 09:03:27;;;;;;;36.00;24.40;;;;;;;12.16;100.00;99358.85;108086;1286;21990;-58
2024/01/18 09:05:52;;;;;;;44.60;24.00;;;;;;;12.19;100.00;99351.21;108072;1286;21984;-61
2024/01/18 09:08:18;;;;;;;43.80;23.60;;;;;;;12.22;100.00;99347.92;108164;1286;21984;-58
2024/01/18 09:10:44;;;;;;;41.90;24.20;;;;;;;12.20;100.00;99345.89;108285;1286;21992;-62
2024/01/18 09:13:10;;;;;;;39.70;22.90;;;;;;;12.18;100.00;99343.33;108294;1286;22001;-61
2024/01/18 09:15:36;;;;;;;37.80;22.30;;;;;;;12.20;100.00;99340.09;108228;1286;21992;-58
2024/01/18 09:18:02;;;;;;;40.10;24.50;;;;;;;12.14;100.00;99348.02;108236;1286;21994;-61
2024/01/18 09:20:27;;;;;;;37.50;22.80;;;;;;;12.25;100.00;99345.54;108197;1286;21997;-59
2024/01/18 09:22:53;;;;;;;36.00;23.10;;;;;;;12.29;100.00;99342.23;108069;1286;21991;-60
2024/01/18 09:25:19;;;;;;;40.70;24.00;;;;;;;12.37;100.00;99336.52;108087;1286;21986;-61
2024/01/18 09:27:44;;;;;;;35.50;23.10;;;;;;;12.41;100.00;99333.35;108114;1277;22045;-58
2024/01/18 09:30:11;;;;;;;38.40;23.20;;;;;;;12.42;100.00;99334.17;108098;1286;22025;-59
2024/01/18 09:32:36;;;;;;;41.80;23.50;;;;;;;12.45;100.00;99330.40;108123;1275;21988;-58
2024/01/18 09:35:05;;;;;;;35.90;23.30;;;;;;;12.52;100.00;99310.28;108077;1288;21996;-58
2024/01/18 09:37:31;;;;;;;33.60;23.00;;;;;;;12.56;100.00;99310.13;108161;1288;21994;-61
2024/01/18 09:39:57;;;;;;;40.20;23.40;;;;;;;12.58;100.00;99310.56;108112;1287;21988;-61
2024/01/18 09:42:25;;;;;;;37.50;23.60;;;;;;;12.63;100.00;99302.80;108131;1286;22462;-58
2024/01/18 09:44:51;;;;;;;34.70;21.90;;;;;;;12.66;100.00;99300.57;108149;1288;22000;-60
2024/01/18 09:47:16;;;;;;;35.70;22.80;;;;;;;12.67;100.00;99299.48;107777;1288;22003;-60
2024/01/18 09:49:43;;;;;;;31.50;20.30;;;;;;;12.68;100.00;99292.23;108104;1288;21989;-61
2024/01/18 09:52:09;;;;;;;39.80;22.70;;;;;;;12.66;100.00;99283.67;108142;1288;22029;-61
2024/01/18 09:54:35;;;;;;;30.80;21.60;;;;;;;12.63;100.00;99278.85;108114;1287;22744;-62
2024/01/18 09:57:01;;;;;;;31.50;20.50;;;;;;;12.64;100.00;99270.39;108150;1288;21990;-60
2024/01/18 09:59:27;;;;;;;34.90;21.80;;;;;;;12.63;100.00;99262.14;109616;1288;22009;-59
2024/01/18 10:01:53;;;;;;;35.40;20.30;;;;;;;12.66;100.00;99257.10;108160;1288;22013;-59
2024/01/18 10:04:19;;;;;;;30.80;20.80;;;;;;;12.69;100.00;99256.31;108484;1288;21995;-59
2024/01/18 10:06:45;;;;;;;31.80;19.90;;;;;;;12.68;100.00;99252.98;106594;1288;1003089;-60
2024/01/18 10:09:14;;;;;;;34.90;20.10;;;;;;;12.66;100.00;99249.87;109062;1288;21999;-59
2024/01/18 10:11:41;;;;;;;32.40;19.60;;;;;;;12.67;100.00;99244.23;108375;1288;21997;-61
2024/01/18 10:14:06;;;;;;;35.20;20.40;;;;;;;12.68;100.00;99240.48;108116;1288;22112;-61
2024/01/18 10:16:34;;;;;;;31.80;19.50;;;;;;;12.71;100.00;99237.73;108077;1288;21993;-59
2024/01/18 10:19:00;;;;;;;34.80;20.20;;;;;;;12.72;100.00;99235.05;108012;1288;23066;-59
2024/01/18 10:21:26;;;;;;;29.00;19.30;;;;;;;12.69;100.00;99230.23;108126;1288;22070;-60
2024/01/18 10:23:53;;;;;;;27.90;18.50;;;;;;;12.68;100.00;99228.52;108109;1288;21998;-61
2024/01/18 10:26:20;;;;;;;30.10;19.10;;;;;;;12.68;100.00;99223.23;107991;1288;21991;-60
2024/01/18 10:28:46;;;;;;;35.60;20.90;;;;;;;12.67;100.00;99219.75;108164;1288;21994;-62
2024/01/18 10:31:11;;;;;;;36.60;20.10;;;;;;;12.69;100.00;99214.58;108017;1288;21998;-61
2024/01/18 10:33:37;;;;;;;30.50;19.00;;;;;;;12.69;100.00;99211.77;108126;1284;21988;-62
2024/01/18 10:36:03;;;;;;;33.50;19.50;;;;;;;12.72;100.00;99205.15;108177;1284;21990;-59
2024/01/18 10:38:38;;;;;;;28.80;17.90;;;;;;;12.74;100.00;99201.17;108124;1286;21992;-60
2024/01/18 10:41:10;;;;;;;29.60;17.80;;;;;;;12.74;100.00;99206.79;108162;1286;21990;-62
2024/01/18 10:43:37;;;;;;;33.00;19.80;;;;;;;12.74;100.00;99205.04;108173;1286;21988;-59
2024/01/18 10:46:03;;;;;;;31.50;19.10;;;;;;;12.76;100.00;99199.17;108322;1283;22012;-60
2024/01/18 10:48:29;;;;;;;31.40;19.40;;;;;;;12.78;100.00;99192.06;108267;1286;22000;-62
2024/01/18 10:50:59;;;;;;;31.10;19.60;;;;;;;12.78;100.00;99182.91;108121;1286;21999;-61
2024/01/18 10:53:29;;;;;;;32.80;20.90;;;;;;;12.78;100.00;99175.69;108268;1286;21987;-62
2024/01/18 10:55:55;;;;;;;35.40;20.10;;;;;;;12.76;100.00;99168.18;108214;1286;22004;-59
2024/01/18 10:58:21;;;;;;;36.80;21.70;;;;;;;12.76;100.00;99163.97;107317;1286;1003164;-58